This is the latest recevied weather packets stored in our database for station/object OE-11331. If no packets are shown the sender has not sent any weather packets the latest 10 day(s).
| Time | Temp. | Humidity | Pressure | Rain* | Wind** | Luminosity | Snow |
|---|---|---|---|---|---|---|---|
| 1787766107 | 26.67° C | 58% | 1014.5 hPa | 0 mm | - | 32 W/m² | - |
| 1787765734 | 27.22° C | 52% | 1014 hPa | 0 mm | - | 43 W/m² | - |
| 1787765133 | 27.22° C | 52% | 1014.2 hPa | 0 mm | - | 65 W/m² | - |
| 1787764307 | 27.22° C | 52% | 1014 hPa | 0 mm | - | 97 W/m² | - |
| 1787763934 | 27.78° C | 52% | 1014 hPa | 0 mm | - | 119 W/m² | - |
| 1787763333 | 27.78° C | 50% | 1013.8 hPa | 0 mm | - | 65 W/m² | - |
| 1787762507 | 27.78° C | 50% | 1014 hPa | 0 mm | - | 87 W/m² | - |
| 1787762134 | 28.89° C | 46% | 1013.7 hPa | 0 mm | - | 216 W/m² | - |
| 1787761534 | 28.89° C | 45% | 1013.7 hPa | 0 mm | - | 260 W/m² | - |
| 1787760707 | 28.89° C | 46% | 1014 hPa | 0 mm | - | 303 W/m² | - |
| 1787760334 | 29.44° C | 43% | 1013.9 hPa | 0 mm | - | 357 W/m² | - |
| 1787759734 | 29.44° C | 42% | 1013.9 hPa | 0 mm | - | 346 W/m² | - |
| 1787758907 | 28.89° C | 42% | 1014.1 hPa | 0 mm | - | 303 W/m² | - |
| 1787758533 | 28.89° C | 43% | 1013.9 hPa | 0 mm | - | 411 W/m² | - |
| 1787757934 | 28.89° C | 43% | 1014 hPa | 0 mm | - | 444 W/m² | - |
| 1787757107 | 28.89° C | 44% | 1014 hPa | 0 mm | - | 455 W/m² | - |
| 1787756734 | 28.89° C | 43% | 1014.2 hPa | 0 mm | - | 465 W/m² | - |
| 1787756134 | 28.89° C | 43% | 1014.2 hPa | 0 mm | - | 487 W/m² | - |
| 1787755307 | 28.89° C | 42% | 1014.2 hPa | 0 mm | - | 541 W/m² | - |
| 1787754934 | 28.89° C | 43% | 1014.3 hPa | 0 mm | - | 574 W/m² | - |
| 1787754334 | 28.89° C | 44% | 1014.4 hPa | 0 mm | - | 595 W/m² | - |
| 1787753507 | 28.33° C | 42% | 1014.5 hPa | 0 mm | - | 617 W/m² | - |
| 1787753134 | 28.33° C | 45% | 1014.6 hPa | 0 mm | - | 639 W/m² | - |
| 1787752534 | 28.33° C | 45% | 1014.5 hPa | 0 mm | - | 660 W/m² | - |
| 1787751707 | 28.33° C | 44% | 1014.5 hPa | 0 mm | - | 671 W/m² | - |
* Rain latest hour (hover to see other rain measurements)
** Current wind speed in m/s (hover to see current wind gust speed)